Time;durP1;ratioP1;P1;durP2;ratioP2;P2;SDS_P1;SDS_P2;PMS_P1;PMS_P2;Temp;Humidity;BMP_temperature;BMP_pressure;BME280_temperature;BME280_humidity;BME280_pressure;Samples;Min_cycle;Max_cycle;Signal;HPM_P1;HPM_P2
2023/04/19 00:00:47;;;;;;;285.03;89.50;;;;;;;-145.45;100.00;64080.75;5035136;28;20795;-84
2023/04/19 00:03:16;;;;;;;288.27;90.60;;;;;;;-145.45;100.00;64080.75;5039268;28;20385;-84
2023/04/19 00:05:41;;;;;;;290.40;90.03;;;;;;;-145.45;100.00;64080.75;5055592;28;20405;-84
2023/04/19 00:08:07;;;;;;;293.85;91.20;;;;;;;-145.45;100.00;64080.75;5055132;28;20417;-84
2023/04/19 00:10:34;;;;;;;287.48;90.68;;;;;;;-145.45;100.00;64080.75;5053313;28;20424;-84
2023/04/19 00:13:00;;;;;;;289.23;90.32;;;;;;;-145.45;100.00;64080.75;5035071;28;20382;-84
2023/04/19 00:15:25;;;;;;;289.10;90.05;;;;;;;-145.45;100.00;64080.75;5036166;28;20379;-84
2023/04/19 00:17:51;;;;;;;294.33;91.05;;;;;;;-145.45;100.00;64080.75;5036839;28;20414;-84
2023/04/19 00:20:16;;;;;;;289.93;91.30;;;;;;;-145.45;100.00;64080.75;5043837;28;20414;-85
2023/04/19 00:22:42;;;;;;;287.92;90.78;;;;;;;-145.45;100.00;64080.75;5047523;28;20890;-84
2023/04/19 00:25:07;;;;;;;290.50;91.43;;;;;;;-145.45;100.00;64080.75;5047291;28;20378;-84
2023/04/19 00:27:33;;;;;;;288.83;90.07;;;;;;;-145.45;100.00;64080.75;5046025;28;20389;-84
2023/04/19 00:29:58;;;;;;;290.15;91.65;;;;;;;-145.45;100.00;64080.75;5043662;28;20450;-85
2023/04/19 00:32:24;;;;;;;287.37;90.73;;;;;;;-145.45;100.00;64080.75;5041945;28;20382;-84
2023/04/19 00:34:49;;;;;;;289.17;91.23;;;;;;;-145.45;100.00;64080.75;5059477;28;20376;-84
2023/04/19 00:37:15;;;;;;;296.70;91.38;;;;;;;-145.45;100.00;64080.75;5062499;28;20376;-84
2023/04/19 00:39:41;;;;;;;294.40;91.68;;;;;;;-145.45;100.00;64080.75;5062405;28;20405;-84
2023/04/19 00:42:06;;;;;;;292.30;91.47;;;;;;;-145.45;100.00;64080.75;5063328;28;20383;-84
2023/04/19 00:44:32;;;;;;;299.23;91.63;;;;;;;-145.45;100.00;64080.75;5062174;28;20482;-84
2023/04/19 00:46:58;;;;;;;294.00;91.30;;;;;;;-145.45;100.00;64080.75;5060936;28;20853;-83
2023/04/19 00:49:24;;;;;;;292.45;90.95;;;;;;;-145.45;100.00;64080.75;5060764;28;20463;-84
2023/04/19 00:51:50;;;;;;;288.45;90.43;;;;;;;-145.45;100.00;64080.75;5062247;28;20368;-84
2023/04/19 00:54:17;;;;;;;292.57;91.50;;;;;;;-145.45;100.00;64080.75;5060863;28;20502;-84
2023/04/19 00:56:44;;;;;;;292.08;91.47;;;;;;;-145.45;100.00;64080.75;5062224;28;20745;-84
2023/04/19 00:59:10;;;;;;;290.90;91.38;;;;;;;-145.45;100.00;64080.75;5059572;28;20385;-84
2023/04/19 01:01:37;;;;;;;294.13;92.00;;;;;;;-145.45;100.00;64080.75;5057170;28;20405;-84
2023/04/19 01:04:03;;;;;;;292.92;91.35;;;;;;;-145.45;100.00;64080.75;5057271;28;20903;-83
2023/04/19 01:06:29;;;;;;;290.80;91.35;;;;;;;-145.45;100.00;64080.75;5057674;28;20411;-83
2023/04/19 01:08:55;;;;;;;291.05;91.15;;;;;;;-145.45;100.00;64080.75;5058473;28;20384;-83
2023/04/19 01:11:22;;;;;;;294.92;92.00;;;;;;;-145.45;100.00;64080.75;5060211;28;20435;-84
2023/04/19 01:13:48;;;;;;;291.33;90.93;;;;;;;-145.45;100.00;64080.75;5055783;28;20803;-85
2023/04/19 01:16:14;;;;;;;295.27;91.97;;;;;;;-145.45;100.00;64080.75;5056229;28;20467;-83
2023/04/19 01:18:40;;;;;;;292.17;90.78;;;;;;;-145.45;100.00;64080.75;5057350;28;20446;-84
2023/04/19 01:21:06;;;;;;;295.17;91.35;;;;;;;-145.45;100.00;64080.75;5057661;28;20440;-83
2023/04/19 01:23:32;;;;;;;286.45;90.20;;;;;;;-145.45;100.00;64080.75;5059394;28;20372;-85
2023/04/19 01:25:57;;;;;;;294.37;91.03;;;;;;;-145.45;100.00;64080.75;5057843;28;20392;-84
2023/04/19 01:28:23;;;;;;;292.15;90.50;;;;;;;-145.45;100.00;64080.75;5059687;28;20373;-84
2023/04/19 01:30:50;;;;;;;293.35;90.63;;;;;;;-145.45;100.00;64080.75;5058246;28;20377;-83
2023/04/19 01:33:16;;;;;;;296.95;92.30;;;;;;;-145.45;100.00;64080.75;5059999;28;20891;-83
2023/04/19 01:35:41;;;;;;;296.80;91.10;;;;;;;-145.45;100.00;64080.75;5075922;28;20380;-84
2023/04/19 01:38:06;;;;;;;297.10;91.17;;;;;;;-145.45;100.00;64080.75;5057000;28;20380;-84
2023/04/19 01:40:32;;;;;;;297.88;91.72;;;;;;;-145.45;100.00;64080.75;5056614;28;20409;-84
2023/04/19 01:42:57;;;;;;;301.03;91.77;;;;;;;-145.45;100.00;64080.75;5057010;28;20384;-84
2023/04/19 01:45:23;;;;;;;296.13;91.03;;;;;;;-145.45;100.00;64080.75;5055787;28;20381;-83
2023/04/19 01:47:48;;;;;;;292.77;90.80;;;;;;;-145.45;100.00;64080.75;5058151;28;20381;-85
2023/04/19 01:50:14;;;;;;;297.33;91.73;;;;;;;-145.45;100.00;64080.75;5059669;28;20415;-85
2023/04/19 01:52:39;;;;;;;302.23;92.93;;;;;;;-145.45;100.00;64080.75;5077533;28;20423;-85
2023/04/19 01:55:05;;;;;;;298.10;91.67;;;;;;;-145.45;100.00;64080.75;5063779;28;20867;-87
2023/04/19 01:57:30;;;;;;;296.08;92.03;;;;;;;-145.45;100.00;64080.75;5065380;28;20392;-84
2023/04/19 01:59:56;;;;;;;298.73;91.90;;;;;;;-145.45;100.00;64080.75;5064866;28;20467;-85
2023/04/19 02:02:21;;;;;;;293.47;91.17;;;;;;;-145.45;100.00;64080.75;5065876;28;20446;-85
2023/04/19 02:04:47;;;;;;;298.13;92.03;;;;;;;-145.45;100.00;64080.75;5061512;28;20415;-84
2023/04/19 02:07:12;;;;;;;303.73;94.37;;;;;;;-145.45;100.00;64080.75;5062727;28;20385;-84
2023/04/19 02:09:38;;;;;;;299.27;92.20;;;;;;;-145.45;100.00;64080.75;5063356;28;20479;-84
2023/04/19 02:12:04;;;;;;;302.27;92.70;;;;;;;-145.45;100.00;64080.75;5061151;28;20384;-83
2023/04/19 02:14:30;;;;;;;301.35;91.97;;;;;;;-145.45;100.00;64080.75;5059064;28;20554;-84
2023/04/19 02:16:56;;;;;;;299.98;92.03;;;;;;;-145.45;100.00;64080.75;5058604;28;20876;-84
2023/04/19 02:19:22;;;;;;;306.73;93.03;;;;;;;-145.45;100.00;64080.75;5054524;28;20442;-83
2023/04/19 02:21:48;;;;;;;307.17;93.27;;;;;;;-145.45;100.00;64080.75;5056097;28;20408;-83
2023/04/19 02:24:13;;;;;;;294.67;91.55;;;;;;;-145.45;100.00;64080.75;5056301;28;20395;-84
2023/04/19 02:26:39;;;;;;;300.60;93.47;;;;;;;-145.45;100.00;64080.75;5058704;28;20376;-84
2023/04/19 02:29:05;;;;;;;303.07;92.87;;;;;;;-145.45;100.00;64080.75;5058076;28;20388;-83
2023/04/19 02:31:31;;;;;;;302.05;93.43;;;;;;;-145.45;100.00;64080.75;5058186;28;20385;-84
2023/04/19 02:33:56;;;;;;;302.30;93.60;;;;;;;-145.45;100.00;64080.75;5055068;28;20467;-84
2023/04/19 02:36:22;;;;;;;306.37;93.83;;;;;;;-145.45;100.00;64080.75;5056131;28;20456;-85
2023/04/19 02:38:47;;;;;;;310.30;92.90;;;;;;;-145.45;100.00;64080.75;5057029;28;20433;-85
2023/04/19 02:41:13;;;;;;;302.13;92.90;;;;;;;-145.45;100.00;64080.75;5056068;28;20404;-84
2023/04/19 02:43:38;;;;;;;305.35;92.97;;;;;;;-145.45;100.00;64080.75;5056735;28;20385;-85
2023/04/19 02:46:04;;;;;;;306.17;93.17;;;;;;;-145.45;100.00;64080.75;5059236;28;20731;-84
2023/04/19 02:48:29;;;;;;;303.33;94.43;;;;;;;-145.45;100.00;64080.75;5059283;28;20821;-83
2023/04/19 02:50:55;;;;;;;302.00;92.82;;;;;;;-145.45;100.00;64080.75;5060432;28;20411;-85
2023/04/19 02:53:20;;;;;;;302.93;93.30;;;;;;;-145.45;100.00;64080.75;5060027;28;20392;-84
2023/04/19 02:55:46;;;;;;;311.90;94.80;;;;;;;-145.45;100.00;64080.75;5060495;28;20431;-84
2023/04/19 02:58:12;;;;;;;309.23;94.43;;;;;;;-145.45;100.00;64080.75;5059088;28;20451;-85
2023/04/19 03:00:37;;;;;;;312.90;94.13;;;;;;;-145.45;100.00;64080.75;5060747;28;20397;-84
2023/04/19 03:03:03;;;;;;;301.13;92.50;;;;;;;-145.45;100.00;64080.75;5058331;28;20714;-85
2023/04/19 03:05:29;;;;;;;303.80;93.63;;;;;;;-145.45;100.00;64080.75;5053609;28;20395;-85
2023/04/19 03:07:54;;;;;;;303.63;93.13;;;;;;;-145.45;100.00;64080.75;5055425;28;20446;-85
2023/04/19 03:10:20;;;;;;;302.80;92.67;;;;;;;-145.45;100.00;64080.75;5054125;28;20380;-85
2023/04/19 03:12:45;;;;;;;305.37;94.23;;;;;;;-145.45;100.00;64080.75;5055843;28;20817;-86
2023/04/19 03:15:11;;;;;;;311.17;95.60;;;;;;;-145.45;100.00;64080.75;5055509;28;20460;-84
2023/04/19 03:17:37;;;;;;;303.52;95.57;;;;;;;-145.45;100.00;64080.75;5054215;28;20848;-86
2023/04/19 03:20:08;;;;;;;306.23;97.77;;;;;;;-145.45;100.00;64080.75;5061137;28;20391;-85
2023/04/19 03:22:34;;;;;;;307.40;96.97;;;;;;;-145.45;100.00;64080.75;5072280;28;20414;-85
2023/04/19 03:24:59;;;;;;;312.15;97.95;;;;;;;-145.45;100.00;64080.75;5054510;28;20373;-85
2023/04/19 03:27:25;;;;;;;304.90;95.03;;;;;;;-145.45;100.00;64080.75;5057403;28;20391;-85
2023/04/19 03:29:51;;;;;;;311.13;96.30;;;;;;;-145.45;100.00;64080.75;5075821;28;20442;-86
2023/04/19 03:32:17;;;;;;;314.38;96.13;;;;;;;-145.45;100.00;64080.75;5077070;28;20388;-86
2023/04/19 03:34:42;;;;;;;310.53;95.43;;;;;;;-145.45;100.00;64080.75;5076254;28;20508;-85
2023/04/19 03:37:07;;;;;;;300.43;94.00;;;;;;;-145.45;100.00;64080.75;5068552;28;20438;-85
2023/04/19 03:39:33;;;;;;;311.30;94.83;;;;;;;-145.45;100.00;64080.75;5066935;28;20385;-85
2023/04/19 03:41:58;;;;;;;308.03;95.47;;;;;;;-145.45;100.00;64080.75;5047635;28;20425;-86
2023/04/19 03:44:24;;;;;;;305.07;94.57;;;;;;;-145.45;100.00;64080.75;5036752;28;20382;-85
2023/04/19 03:46:49;;;;;;;311.05;95.13;;;;;;;-145.45;100.00;64080.75;5050055;28;20515;-85
2023/04/19 03:49:15;;;;;;;315.73;96.30;;;;;;;-145.45;100.00;64080.75;5057928;28;20401;-85
2023/04/19 03:51:40;;;;;;;316.60;96.65;;;;;;;-145.45;100.00;64080.75;5037622;28;20390;-84
2023/04/19 03:54:06;;;;;;;319.50;96.73;;;;;;;-145.45;100.00;64080.75;5033549;28;20537;-84
2023/04/19 03:56:31;;;;;;;316.50;96.35;;;;;;;-145.45;100.00;64080.75;5041663;28;20385;-86
2023/04/19 03:58:56;;;;;;;314.40;95.87;;;;;;;-145.45;100.00;64080.75;5041573;28;20392;-87
2023/04/19 04:01:23;;;;;;;318.27;96.17;;;;;;;-145.45;100.00;64080.75;5048566;28;20394;-87
2023/04/19 04:03:49;;;;;;;320.20;97.13;;;;;;;-145.45;100.00;64080.75;5043124;28;20390;-87
2023/04/19 04:06:14;;;;;;;313.67;95.80;;;;;;;-145.45;100.00;64080.75;5049214;28;20396;-85
2023/04/19 04:08:40;;;;;;;311.67;95.60;;;;;;;-145.45;100.00;64080.75;5046966;28;20390;-86
2023/04/19 04:11:05;;;;;;;305.73;96.03;;;;;;;-145.45;100.00;64080.75;5050668;28;20393;-86
2023/04/19 04:13:31;;;;;;;311.15;97.05;;;;;;;-145.45;100.00;64080.75;5045863;28;20470;-87
2023/04/19 04:15:56;;;;;;;316.30;97.73;;;;;;;-145.45;100.00;64080.75;5048966;28;20410;-86
2023/04/19 04:18:23;;;;;;;317.98;97.72;;;;;;;-145.45;100.00;64080.75;5034375;28;20395;-87
2023/04/19 04:20:48;;;;;;;314.30;96.82;;;;;;;-145.45;100.00;64080.75;5026691;28;20485;-87
2023/04/19 04:23:14;;;;;;;305.92;95.28;;;;;;;-145.45;100.00;64080.75;5053710;28;20817;-86
2023/04/19 04:25:39;;;;;;;320.67;97.30;;;;;;;-145.45;100.00;64080.75;5055678;28;20396;-87
2023/04/19 04:28:05;;;;;;;323.17;98.07;;;;;;;-145.45;100.00;64080.75;5046753;28;20391;-86
2023/04/19 04:30:32;;;;;;;317.58;97.75;;;;;;;-145.45;100.00;64080.75;5038490;28;21066;-87
2023/04/19 04:32:58;;;;;;;312.05;97.68;;;;;;;-145.45;100.00;64080.75;5038464;28;20409;-87
2023/04/19 04:35:24;;;;;;;315.03;99.73;;;;;;;-145.45;100.00;64080.75;5049318;28;20479;-86
2023/04/19 04:37:52;;;;;;;313.48;99.03;;;;;;;-145.45;100.00;64080.75;5045979;28;20378;-86
2023/04/19 04:40:18;;;;;;;314.90;100.60;;;;;;;-145.45;100.00;64080.75;5034219;28;20493;-87
2023/04/19 04:42:45;;;;;;;312.65;100.82;;;;;;;-145.45;100.00;64080.75;5037907;28;20429;-86
2023/04/19 04:45:11;;;;;;;315.17;100.03;;;;;;;-145.45;100.00;64080.75;5052708;28;20386;-86
2023/04/19 04:47:37;;;;;;;319.45;101.60;;;;;;;-145.45;100.00;64080.75;5047439;28;20390;-85
2023/04/19 04:50:03;;;;;;;317.45;100.05;;;;;;;-145.45;100.00;64080.75;5046027;28;20413;-86
2023/04/19 04:52:29;;;;;;;319.75;101.20;;;;;;;-145.45;100.00;64080.75;5040903;28;20393;-86
2023/04/19 04:54:54;;;;;;;308.87;99.93;;;;;;;-145.45;100.00;64080.75;5055610;28;20386;-89
2023/04/19 04:57:20;;;;;;;312.77;98.90;;;;;;;-145.45;100.00;64080.75;5052965;28;20429;-87
2023/04/19 04:59:46;;;;;;;310.65;98.63;;;;;;;-145.45;100.00;64080.75;5052575;28;21104;-87
2023/04/19 05:02:13;;;;;;;320.98;99.80;;;;;;;-145.45;100.00;64080.75;5054912;28;21263;-88
2023/04/19 05:04:39;;;;;;;311.70;98.30;;;;;;;-145.45;100.00;64080.75;5056703;28;20453;-87
2023/04/19 05:07:05;;;;;;;313.67;98.93;;;;;;;-145.45;100.00;64080.75;5059494;28;20382;-87
2023/04/19 05:09:30;;;;;;;310.75;98.05;;;;;;;-145.45;100.00;64080.75;5057439;28;20803;-87
2023/04/19 05:11:56;;;;;;;310.20;97.93;;;;;;;-145.45;100.00;64080.75;5056844;28;20361;-85
2023/04/19 05:14:21;;;;;;;313.80;98.70;;;;;;;-145.45;100.00;64080.75;5052604;28;20452;-86
2023/04/19 05:16:47;;;;;;;303.00;96.93;;;;;;;-145.45;100.00;64080.75;5049164;28;20376;-86
2023/04/19 05:19:12;;;;;;;306.35;96.82;;;;;;;-145.45;100.00;64080.75;5043605;28;20388;-87
2023/04/19 05:21:38;;;;;;;300.97;96.50;;;;;;;-145.45;100.00;64080.75;5057745;28;20401;-86
2023/04/19 05:24:04;;;;;;;314.98;98.32;;;;;;;-145.45;100.00;64080.75;5070903;28;20400;-86
2023/04/19 05:26:29;;;;;;;312.60;96.85;;;;;;;-145.45;100.00;64080.75;5067247;28;20396;-86
2023/04/19 05:28:55;;;;;;;308.02;96.88;;;;;;;-145.45;100.00;64080.75;5039768;28;20393;-85
2023/04/19 05:31:21;;;;;;;305.77;97.50;;;;;;;-145.45;100.00;64080.75;5037757;28;20378;-86
2023/04/19 05:33:46;;;;;;;303.13;97.30;;;;;;;-145.45;100.00;64080.75;5038518;28;20378;-86
2023/04/19 05:36:12;;;;;;;303.02;98.68;;;;;;;-145.45;100.00;64080.75;5053095;28;20376;-87
2023/04/19 05:38:37;;;;;;;306.23;97.72;;;;;;;-145.45;100.00;64080.75;5056012;28;20387;-86
2023/04/19 05:41:04;;;;;;;300.20;95.67;;;;;;;-145.45;100.00;64080.75;5039566;28;20413;-86
2023/04/19 05:43:30;;;;;;;299.97;96.37;;;;;;;-145.45;100.00;64080.75;5055048;28;20372;-86
2023/04/19 05:45:55;;;;;;;303.47;97.53;;;;;;;-145.45;100.00;64080.75;5050711;28;20389;-86
2023/04/19 05:48:21;;;;;;;294.57;95.70;;;;;;;-145.45;100.00;64080.75;5044550;28;20369;-86
2023/04/19 05:50:46;;;;;;;302.38;98.47;;;;;;;-145.45;100.00;64080.75;5059817;28;20388;-87
2023/04/19 05:53:12;;;;;;;300.30;97.70;;;;;;;-145.45;100.00;64080.75;5051254;28;20780;-87
2023/04/19 05:55:37;;;;;;;296.63;97.40;;;;;;;-145.45;100.00;64080.75;5050944;28;20375;-85
2023/04/19 05:58:03;;;;;;;306.70;100.30;;;;;;;-145.45;100.00;64080.75;5051874;28;20382;-87
2023/04/19 06:00:28;;;;;;;287.30;101.73;;;;;;;-145.45;100.00;64080.75;5037926;28;20952;-85
2023/04/19 06:02:54;;;;;;;291.42;94.82;;;;;;;-145.45;100.00;64080.75;5047842;28;20382;-86
2023/04/19 06:05:19;;;;;;;288.03;93.70;;;;;;;-145.45;100.00;64080.75;5036432;28;20375;-85
2023/04/19 06:07:45;;;;;;;290.40;94.93;;;;;;;-145.45;100.00;64080.75;5039887;28;20382;-87
2023/04/19 06:10:10;;;;;;;293.40;94.63;;;;;;;-145.45;100.00;64080.75;5039584;28;20370;-85
2023/04/19 06:12:36;;;;;;;285.40;95.45;;;;;;;-145.45;100.00;64080.75;5042822;28;20800;-86
2023/04/19 06:15:02;;;;;;;292.83;98.00;;;;;;;-145.45;100.00;64080.75;5050666;28;20375;-84
2023/04/19 06:17:28;;;;;;;297.00;98.55;;;;;;;-145.45;100.00;64080.75;5050613;28;20395;-85
2023/04/19 06:19:55;;;;;;;297.05;96.03;;;;;;;-145.45;100.00;64080.75;5052636;28;20395;-86
2023/04/19 06:22:20;;;;;;;286.88;94.03;;;;;;;-145.45;100.00;64080.75;5041168;28;20463;-86
2023/04/19 06:24:48;;;;;;;286.20;94.65;;;;;;;-145.45;100.00;64080.75;5033785;28;20454;-85
2023/04/19 06:27:15;;;;;;;296.10;94.60;;;;;;;-145.45;100.00;64080.75;5042932;28;20399;-85
2023/04/19 06:29:41;;;;;;;288.08;92.63;;;;;;;-145.45;100.00;64080.75;5045700;28;20390;-85
2023/04/19 06:32:08;;;;;;;278.08;92.25;;;;;;;-145.45;100.00;64080.75;5048141;28;20377;-86
2023/04/19 06:34:35;;;;;;;279.75;90.65;;;;;;;-145.45;100.00;64080.75;5051555;28;20412;-86
2023/04/19 06:37:01;;;;;;;282.27;90.65;;;;;;;-145.45;100.00;64080.75;5055104;28;20437;-86
2023/04/19 06:39:27;;;;;;;284.00;91.63;;;;;;;-145.45;100.00;64080.75;5049867;28;20377;-87
2023/04/19 06:41:52;;;;;;;275.52;89.70;;;;;;;-145.45;100.00;64080.75;5051910;28;20410;-86
2023/04/19 06:44:18;;;;;;;271.10;90.00;;;;;;;-145.45;100.00;64080.75;5044435;28;20409;-85
2023/04/19 06:46:43;;;;;;;277.48;89.78;;;;;;;-145.45;100.00;64080.75;5046868;28;20535;-85
2023/04/19 06:49:09;;;;;;;270.37;88.40;;;;;;;-145.45;100.00;64080.75;5050465;28;20440;-85
2023/04/19 06:51:35;;;;;;;275.13;88.83;;;;;;;-145.45;100.00;64080.75;5048802;28;20373;-86
2023/04/19 06:54:00;;;;;;;276.80;89.85;;;;;;;-145.45;100.00;64080.75;5065457;28;20382;-87
2023/04/19 06:56:46;;;;;;;273.67;89.53;;;;;;;-145.45;100.00;64080.75;5057844;28;20408;-85
2023/04/19 06:59:19;;;;;;;273.15;89.22;;;;;;;-145.45;100.00;64080.75;5048061;28;20365;-85
2023/04/19 07:01:46;;;;;;;282.02;91.28;;;;;;;-145.45;100.00;64080.75;5039714;28;20406;-85
2023/04/19 07:04:11;;;;;;;274.17;89.97;;;;;;;-145.45;100.00;64080.75;5050812;28;20404;-85
2023/04/19 07:06:38;;;;;;;273.08;89.63;;;;;;;-145.45;100.00;64080.75;5058210;28;20381;-85
2023/04/19 07:09:05;;;;;;;276.98;93.68;;;;;;;-145.45;100.00;64080.75;5057352;28;20392;-86
2023/04/19 07:11:32;;;;;;;273.33;89.70;;;;;;;-145.45;100.00;64080.75;5065901;28;20442;-86
2023/04/19 07:13:59;;;;;;;273.95;89.30;;;;;;;-145.45;100.00;64080.75;5061917;28;20500;-86
2023/04/19 07:16:25;;;;;;;273.55;91.20;;;;;;;-145.45;100.00;64080.75;5048171;28;20816;-87
2023/04/19 07:18:51;;;;;;;275.80;91.35;;;;;;;-145.45;100.00;64080.75;5050277;28;20435;-87
2023/04/19 07:21:16;;;;;;;268.97;90.10;;;;;;;-145.45;100.00;64080.75;5055722;28;20404;-87
2023/04/19 07:23:42;;;;;;;266.83;87.57;;;;;;;-145.45;100.00;64080.75;5055082;28;20460;-85
2023/04/19 07:26:08;;;;;;;265.10;87.40;;;;;;;-145.45;100.00;64080.75;5065246;28;20379;-86
2023/04/19 07:28:33;;;;;;;287.63;91.93;;;;;;;-145.45;100.00;64080.75;5055986;28;20453;-86
2023/04/19 07:30:59;;;;;;;116.65;59.22;;;;;;;-145.45;100.00;64080.75;5068624;28;20389;-88
2023/04/19 07:33:26;;;;;;;271.48;89.25;;;;;;;-145.45;100.00;64080.75;5076532;28;20388;-89
2023/04/19 07:35:51;;;;;;;253.13;86.05;;;;;;;-145.45;100.00;64080.75;5076401;28;20392;-86
2023/04/19 07:38:18;;;;;;;547.30;137.33;;;;;;;-145.45;100.00;64080.75;5062859;28;20395;-85
2023/04/19 07:40:43;;;;;;;671.55;162.02;;;;;;;-145.45;100.00;64080.75;5054319;28;20400;-85
2023/04/19 07:43:09;;;;;;;720.78;177.93;;;;;;;-145.45;100.00;64080.75;5038735;28;20385;-84
2023/04/19 07:45:34;;;;;;;854.20;216.73;;;;;;;-145.45;100.00;64080.75;5045674;28;20370;-85
2023/04/19 07:48:00;;;;;;;722.60;183.70;;;;;;;-145.45;100.00;64080.75;5036923;28;20390;-86
2023/04/19 07:50:26;;;;;;;632.03;165.47;;;;;;;-145.45;100.00;64080.75;5037026;28;20402;-86
2023/04/19 07:52:51;;;;;;;672.50;163.63;;;;;;;-145.45;100.00;64080.75;5035724;28;20374;-84
2023/04/19 07:55:17;;;;;;;661.60;158.02;;;;;;;-145.45;100.00;64080.75;5051570;28;20402;-86
2023/04/19 07:57:46;;;;;;;62.65;45.70;;;;;;;-145.45;100.00;64080.75;5036412;28;20382;-86
2023/04/19 08:00:14;;;;;;;65.68;46.30;;;;;;;-145.45;100.00;64080.75;5051436;28;20501;-85
2023/04/19 08:02:45;;;;;;;668.80;160.70;;;;;;;-145.45;100.00;64080.75;5069801;28;20393;-91
2023/04/19 08:05:18;;;;;;;715.10;169.77;;;;;;;-145.45;100.00;64080.75;5042029;28;20378;-86
2023/04/19 08:07:45;;;;;;;754.05;182.05;;;;;;;-145.45;100.00;64080.75;5038654;28;20382;-87
2023/04/19 08:10:11;;;;;;;697.20;165.52;;;;;;;-145.45;100.00;64080.75;5052072;28;20371;-86
2023/04/19 08:12:36;;;;;;;703.95;168.55;;;;;;;-145.45;100.00;64080.75;5043882;28;20383;-87
2023/04/19 08:15:06;;;;;;;726.25;174.15;;;;;;;-145.45;100.00;64080.75;5037425;28;20374;-86
2023/04/19 08:17:31;;;;;;;739.03;178.75;;;;;;;-145.45;100.00;64080.75;5037552;28;20382;-88
2023/04/19 08:19:58;;;;;;;777.50;188.65;;;;;;;-145.45;100.00;64080.75;5037113;28;20526;-86
2023/04/19 08:22:25;;;;;;;773.40;187.30;;;;;;;-145.45;100.00;64080.75;5038520;28;20394;-86
2023/04/19 08:24:51;;;;;;;815.80;200.15;;;;;;;-145.45;100.00;64080.75;5041617;28;20386;-86
2023/04/19 08:27:17;;;;;;;858.38;214.93;;;;;;;-145.45;100.00;64080.75;5054921;28;20394;-85
2023/04/19 08:29:43;;;;;;;950.63;247.02;;;;;;;-145.45;100.00;64080.75;5037157;28;20416;-87
2023/04/19 08:32:10;;;;;;;896.35;228.73;;;;;;;-145.45;100.00;64080.75;5036389;28;20374;-87
2023/04/19 08:34:38;;;;;;;846.78;212.18;;;;;;;-145.45;100.00;64080.75;5053603;28;20389;-87
2023/04/19 08:37:06;;;;;;;834.60;206.68;;;;;;;-145.45;100.00;64080.75;5040782;28;20378;-86
2023/04/19 08:39:32;;;;;;;828.08;202.23;;;;;;;-145.45;100.00;64080.75;5048671;28;20406;-88
2023/04/19 08:42:04;;;;;;;802.45;197.60;;;;;;;-145.45;100.00;64080.75;5051516;28;20410;-86
2023/04/19 08:44:32;;;;;;;793.83;193.57;;;;;;;-145.45;100.00;64080.75;5043301;28;20375;-88
2023/04/19 08:46:58;;;;;;;799.75;195.63;;;;;;;-145.45;100.00;64080.75;5042863;28;20386;-86
2023/04/19 08:49:26;;;;;;;800.42;195.32;;;;;;;-145.45;100.00;64080.75;5049573;28;20393;-89
2023/04/19 08:51:53;;;;;;;780.43;189.77;;;;;;;-145.45;100.00;64080.75;5037141;28;20451;-87
2023/04/19 08:54:20;;;;;;;775.83;188.17;;;;;;;-145.45;100.00;64080.75;5042050;28;20379;-86
2023/04/19 08:56:46;;;;;;;770.90;187.18;;;;;;;-145.45;100.00;64080.75;5049324;28;20388;-87
2023/04/19 08:59:12;;;;;;;762.33;184.83;;;;;;;-145.45;100.00;64080.75;5051410;28;20405;-86
2023/04/19 09:01:38;;;;;;;746.38;179.30;;;;;;;-145.45;100.00;64080.75;5060553;28;20413;-87
2023/04/19 09:04:05;;;;;;;737.33;176.68;;;;;;;-145.45;100.00;64080.75;5045336;28;20383;-87
2023/04/19 09:06:37;;;;;;;736.58;176.40;;;;;;;-145.45;100.00;64080.75;5043915;28;20387;-87
2023/04/19 09:09:17;;;;;;;728.92;175.07;;;;;;;-145.45;100.00;64080.75;5043605;28;20417;-87
2023/04/19 09:11:43;;;;;;;761.17;183.13;;;;;;;-145.45;100.00;64080.75;5042890;28;20839;-87
2023/04/19 09:14:10;;;;;;;767.73;185.00;;;;;;;-145.45;100.00;64080.75;5043334;28;20525;-88
2023/04/19 09:16:37;;;;;;;770.13;186.52;;;;;;;-145.45;100.00;64080.75;5043370;28;20383;-89
2023/04/19 09:19:02;;;;;;;764.92;185.90;;;;;;;-145.45;100.00;64080.75;5059628;28;20386;-87
2023/04/19 09:21:30;;;;;;;754.63;181.30;;;;;;;-145.45;100.00;64080.75;5041859;28;20467;-88
2023/04/19 09:23:57;;;;;;;759.42;183.15;;;;;;;-145.45;100.00;64080.75;5027011;28;20394;-86
2023/04/19 09:26:22;;;;;;;768.10;185.85;;;;;;;-145.45;100.00;64080.75;5043438;28;20386;-88
2023/04/19 09:29:03;;;;;;;774.50;187.75;;;;;;;-145.45;100.00;64080.75;5059250;28;20386;-88
2023/04/19 09:31:35;;;;;;;1022.00;273.60;;;;;;;-145.45;100.00;64080.75;5044596;28;20739;-87
2023/04/19 09:34:15;;;;;;;954.03;248.35;;;;;;;-145.45;100.00;64080.75;5044093;28;20387;-87
2023/04/19 09:36:41;;;;;;;952.97;248.13;;;;;;;-145.45;100.00;64080.75;5042738;28;20386;-87
2023/04/19 09:39:07;;;;;;;951.07;245.93;;;;;;;-145.45;100.00;64080.75;5057274;28;20386;-88
2023/04/19 09:41:34;;;;;;;962.97;250.65;;;;;;;-145.45;100.00;64080.75;5041859;28;20410;-88
2023/04/19 09:44:10;;;;;;;972.50;255.30;;;;;;;-145.45;100.00;64080.75;5058852;28;20867;-86
2023/04/19 09:46:36;;;;;;;970.08;253.60;;;;;;;-145.45;100.00;64080.75;5047648;28;20401;-89
2023/04/19 09:49:18;;;;;;;970.53;253.25;;;;;;;-145.45;100.00;64080.75;5049120;28;20512;-87
2023/04/19 09:51:46;;;;;;;963.03;250.88;;;;;;;-145.45;100.00;64080.75;5044830;28;20385;-87
2023/04/19 09:54:13;;;;;;;968.97;253.20;;;;;;;-145.45;100.00;64080.75;5043581;28;20535;-89
2023/04/19 09:56:40;;;;;;;951.30;245.73;;;;;;;-145.45;100.00;64080.75;5044158;28;20397;-88
2023/04/19 09:59:06;;;;;;;940.40;241.68;;;;;;;-145.45;100.00;64080.75;5060216;28;20391;-88
2023/04/19 10:01:45;;;;;;;938.57;241.90;;;;;;;-145.45;100.00;64080.75;5064549;28;20403;-86
2023/04/19 10:04:12;;;;;;;933.30;241.20;;;;;;;-145.45;100.00;64080.75;5021847;28;20726;-88
2023/04/19 10:06:40;;;;;;;940.72;243.75;;;;;;;-145.45;100.00;64080.75;5027229;28;20399;-88
2023/04/19 10:09:07;;;;;;;942.03;244.45;;;;;;;-145.45;100.00;64080.75;5006041;28;20442;-87
2023/04/19 10:11:39;;;;;;;944.60;244.23;;;;;;;-145.45;100.00;64080.75;5024659;28;20396;-87
2023/04/19 10:14:07;;;;;;;941.70;243.27;;;;;;;-145.45;100.00;64080.75;5008635;28;20465;-87
2023/04/19 10:16:35;;;;;;;944.33;245.45;;;;;;;-145.45;100.00;64080.75;5025037;28;20410;-87
2023/04/19 10:19:21;;;;;;;942.97;243.07;;;;;;;-145.45;100.00;64080.75;5028816;28;20475;-88
2023/04/19 10:21:50;;;;;;;934.13;241.48;;;;;;;-145.45;100.00;64080.75;5007820;28;20416;-86
2023/04/19 10:24:18;;;;;;;901.53;230.45;;;;;;;-145.45;100.00;64080.75;5006744;28;20392;-89
2023/04/19 10:27:05;;;;;;;912.10;233.88;;;;;;;-145.45;100.00;64080.75;5033904;28;20430;-91
2023/04/19 10:30:15;;;;;;;955.85;249.48;;;;;;;-145.45;100.00;64080.75;5021009;28;20467;-86
2023/04/19 10:32:42;;;;;;;953.60;248.88;;;;;;;-145.45;100.00;64080.75;5020985;28;20785;-86
2023/04/19 10:35:18;;;;;;;955.58;250.00;;;;;;;-145.45;100.00;64080.75;5031148;28;20421;-86
2023/04/19 10:38:05;;;;;;;820.83;202.35;;;;;;;-145.45;100.00;64080.75;5047230;28;20406;-89
2023/04/19 10:40:49;;;;;;;886.13;224.65;;;;;;;-145.45;100.00;64080.75;5073797;28;20422;-88
2023/04/19 10:43:16;;;;;;;894.05;227.55;;;;;;;-145.45;100.00;64080.75;5057949;28;20390;-86